createdAt,value
2018-05-15T00:01:04.183Z,19.11
2018-05-15T00:03:31.751Z,19.10
2018-05-15T00:05:59.339Z,19.09
2018-05-15T00:08:26.899Z,19.04
2018-05-15T00:10:54.913Z,18.96
2018-05-15T00:13:22.474Z,18.93
2018-05-15T00:15:50.274Z,18.93
2018-05-15T00:18:17.872Z,18.92
2018-05-15T00:20:45.662Z,18.88
2018-05-15T00:23:13.595Z,18.85
2018-05-15T00:25:41.165Z,18.81
2018-05-15T00:28:08.828Z,18.79
2018-05-15T00:30:36.434Z,18.77
2018-05-15T00:33:04.199Z,18.73
2018-05-15T00:35:32.004Z,18.69
2018-05-15T00:37:59.580Z,18.66
2018-05-15T00:40:27.209Z,18.60
2018-05-15T00:42:54.881Z,18.54
2018-05-15T00:45:22.586Z,18.48
2018-05-15T00:47:50.148Z,18.43
2018-05-15T00:50:18.281Z,18.38
2018-05-15T00:52:45.844Z,18.32
2018-05-15T00:55:25.212Z,18.28
2018-05-15T00:57:53.116Z,18.20
2018-05-15T01:00:20.744Z,18.14
2018-05-15T01:02:48.614Z,18.12
2018-05-15T01:05:16.173Z,18.08
2018-05-15T01:07:43.815Z,18.08
2018-05-15T01:10:11.476Z,18.02
2018-05-15T01:12:39.043Z,18.01
2018-05-15T01:15:06.652Z,17.98
2018-05-15T01:17:34.274Z,17.97
2018-05-15T01:20:01.901Z,17.94
2018-05-15T01:22:29.484Z,17.90
2018-05-15T01:24:57.131Z,17.86
2018-05-15T01:27:24.767Z,17.82
2018-05-15T01:29:52.706Z,17.81
2018-05-15T01:32:20.291Z,17.78
2018-05-15T01:34:48.056Z,17.75
2018-05-15T01:37:15.614Z,17.67
2018-05-15T01:39:43.213Z,17.66
2018-05-15T01:42:10.810Z,17.63
2018-05-15T01:44:38.472Z,17.59
2018-05-15T01:47:06.040Z,17.53
2018-05-15T01:49:33.754Z,17.50
2018-05-15T01:52:01.326Z,17.47
2018-05-15T01:54:28.893Z,17.47
2018-05-15T01:56:56.495Z,17.47
2018-05-15T01:59:24.205Z,17.42
2018-05-15T02:01:51.776Z,17.37
2018-05-15T02:04:19.351Z,17.32
2018-05-15T02:06:46.949Z,17.30
2018-05-15T02:09:14.936Z,17.27
2018-05-15T02:11:43.295Z,17.26
2018-05-15T02:14:11.287Z,17.23
2018-05-15T02:16:39.337Z,17.22
2018-05-15T02:19:07.331Z,17.19
2018-05-15T02:21:35.337Z,17.14
2018-05-15T02:24:02.974Z,17.14
2018-05-15T02:26:30.538Z,17.07
2018-05-15T02:28:58.109Z,17.03
2018-05-15T02:31:25.722Z,17.02
2018-05-15T02:33:53.388Z,17.01
2018-05-15T02:36:21.000Z,16.98
2018-05-15T02:38:48.807Z,16.94
2018-05-15T02:41:16.421Z,16.91
2018-05-15T02:43:44.220Z,16.90
2018-05-15T02:46:11.809Z,16.87
2018-05-15T02:48:39.375Z,16.84
2018-05-15T02:51:06.982Z,16.82
2018-05-15T02:53:34.839Z,16.78
2018-05-15T02:56:02.421Z,16.74
2018-05-15T02:58:30.099Z,16.68
2018-05-15T03:00:57.798Z,16.63
2018-05-15T03:03:25.377Z,16.54
2018-05-15T03:05:52.955Z,16.50
2018-05-15T03:08:20.556Z,16.48
2018-05-15T03:10:48.270Z,16.46
2018-05-15T03:13:15.939Z,16.40
2018-05-15T03:15:43.537Z,16.34
2018-05-15T03:18:11.287Z,16.34
2018-05-15T03:20:38.859Z,16.35
2018-05-15T03:23:06.426Z,16.32
2018-05-15T03:25:34.375Z,16.29
2018-05-15T03:28:01.951Z,16.27
2018-05-15T03:30:29.507Z,16.23
2018-05-15T03:32:57.122Z,16.20
2018-05-15T03:35:24.772Z,16.18
2018-05-15T03:37:52.540Z,16.15
2018-05-15T03:40:20.171Z,16.15
2018-05-15T03:42:47.972Z,16.13
2018-05-15T03:45:15.601Z,16.10
2018-05-15T03:47:43.181Z,16.10
2018-05-15T03:50:10.832Z,16.09
2018-05-15T03:52:38.902Z,16.05
2018-05-15T03:55:06.457Z,16.02
2018-05-15T03:57:34.060Z,15.96
2018-05-15T04:00:01.878Z,15.91
2018-05-15T04:02:41.097Z,15.90
2018-05-15T04:05:20.409Z,15.86
2018-05-15T04:08:14.708Z,15.83
2018-05-15T04:10:42.401Z,15.80
2018-05-15T04:13:09.986Z,15.77
2018-05-15T04:15:37.548Z,15.77
2018-05-15T04:18:05.602Z,15.77
2018-05-15T04:20:33.404Z,15.77
2018-05-15T04:23:00.962Z,15.78
2018-05-15T04:25:28.576Z,15.79
2018-05-15T04:27:56.140Z,15.78
2018-05-15T04:30:23.812Z,15.78
2018-05-15T04:32:51.381Z,15.74
2018-05-15T04:35:19.342Z,15.74
2018-05-15T04:37:47.153Z,15.75
2018-05-15T04:40:14.712Z,15.77
2018-05-15T04:42:42.302Z,15.78
2018-05-15T04:45:10.671Z,15.79
2018-05-15T04:47:38.238Z,15.80
2018-05-15T04:50:05.828Z,15.82
2018-05-15T04:52:33.456Z,15.81
2018-05-15T04:55:01.020Z,15.83
2018-05-15T04:57:28.591Z,15.87
2018-05-15T04:59:56.219Z,15.91
2018-05-15T05:02:23.859Z,15.92
2018-05-15T05:04:51.788Z,15.92
2018-05-15T05:07:19.362Z,15.97
2018-05-15T05:09:46.919Z,16.00
2018-05-15T05:12:14.524Z,16.02
2018-05-15T05:14:42.339Z,16.08
2018-05-15T05:17:09.902Z,16.13
2018-05-15T05:19:38.140Z,16.18
2018-05-15T05:22:05.732Z,16.25
2018-05-15T05:24:33.362Z,16.31
2018-05-15T05:27:01.513Z,16.36
2018-05-15T05:29:29.145Z,16.42
2018-05-15T05:31:56.797Z,16.47
2018-05-15T05:34:24.394Z,16.52
2018-05-15T05:36:52.257Z,16.58
2018-05-15T05:39:19.850Z,16.64
2018-05-15T05:41:47.433Z,16.70
2018-05-15T05:44:15.077Z,16.80
2018-05-15T05:46:42.715Z,16.87
2018-05-15T05:49:10.287Z,16.96
2018-05-15T05:51:37.952Z,17.03
2018-05-15T05:54:05.615Z,17.11
2018-05-15T05:56:33.276Z,17.21
2018-05-15T05:59:00.871Z,17.31
2018-05-15T06:01:28.444Z,17.43
2018-05-15T06:03:56.041Z,17.56
2018-05-15T06:06:23.840Z,17.67
2018-05-15T06:08:51.540Z,17.77
2018-05-15T06:11:19.105Z,17.77
2018-05-15T06:13:46.682Z,17.85
2018-05-15T06:16:14.379Z,17.93
2018-05-15T06:18:41.979Z,17.97
2018-05-15T06:21:09.577Z,18.09
2018-05-15T06:23:37.760Z,18.24
2018-05-15T06:26:05.418Z,18.40
2018-05-15T06:28:33.000Z,18.46
2018-05-15T06:31:00.594Z,18.54
2018-05-15T06:33:28.171Z,18.63
2018-05-15T06:35:56.153Z,18.70
2018-05-15T06:38:23.722Z,18.77
2018-05-15T06:40:51.294Z,18.84
2018-05-15T06:43:18.885Z,18.95
2018-05-15T06:45:46.472Z,19.03
2018-05-15T06:48:14.068Z,19.16
2018-05-15T06:50:41.629Z,19.31
2018-05-15T06:53:09.312Z,19.35
2018-05-15T06:55:36.881Z,19.49
2018-05-15T06:58:04.481Z,19.64
2018-05-15T07:00:32.438Z,19.73
2018-05-15T07:03:00.072Z,19.83
2018-05-15T07:05:27.656Z,19.99
2018-05-15T07:07:55.251Z,20.14
2018-05-15T07:10:22.829Z,20.33
2018-05-15T07:12:50.515Z,20.45
2018-05-15T07:15:18.316Z,20.61
2018-05-15T07:17:45.895Z,20.80
2018-05-15T07:20:13.485Z,20.88
2018-05-15T07:22:41.060Z,21.00
2018-05-15T07:25:08.746Z,21.14
2018-05-15T07:27:36.571Z,21.29
2018-05-15T07:30:04.418Z,21.45
2018-05-15T07:32:32.474Z,21.55
2018-05-15T07:35:00.051Z,21.64
2018-05-15T07:37:27.726Z,21.76
2018-05-15T07:39:55.416Z,21.88
2018-05-15T07:42:22.975Z,22.01
2018-05-15T07:44:50.538Z,22.14
2018-05-15T07:47:18.121Z,22.23
2018-05-15T07:49:45.707Z,22.34
2018-05-15T07:52:13.299Z,22.47
2018-05-15T07:54:40.860Z,22.55
2018-05-15T07:57:08.496Z,22.57
2018-05-15T07:59:36.079Z,22.66
2018-05-15T08:02:03.673Z,22.77
2018-05-15T08:04:31.319Z,22.91
2018-05-15T08:06:59.119Z,22.93
2018-05-15T08:09:26.943Z,22.94
2018-05-15T08:11:54.524Z,23.06
2018-05-15T08:14:22.452Z,23.19
2018-05-15T08:16:50.027Z,23.27
2018-05-15T08:19:17.600Z,23.40
2018-05-15T08:21:45.216Z,23.49
2018-05-15T08:24:12.784Z,23.59
2018-05-15T08:26:40.344Z,23.68
2018-05-15T08:29:08.423Z,23.80
2018-05-15T08:31:36.048Z,23.84
2018-05-15T08:34:03.617Z,23.88
2018-05-15T08:36:31.445Z,24.01
2018-05-15T08:38:59.277Z,24.14
2018-05-15T08:41:27.263Z,24.22
2018-05-15T08:43:55.149Z,24.30
2018-05-15T08:46:23.020Z,24.36
2018-05-15T08:48:50.631Z,24.52
2018-05-15T08:51:18.291Z,24.68
2018-05-15T08:53:46.369Z,24.76
2018-05-15T08:56:13.973Z,24.85
2018-05-15T08:58:41.660Z,24.89
2018-05-15T09:01:09.267Z,24.99
2018-05-15T09:03:37.161Z,25.16
2018-05-15T09:06:05.109Z,25.32
2018-05-15T09:08:32.683Z,25.48
2018-05-15T09:11:00.327Z,25.59
2018-05-15T09:13:28.285Z,25.69
2018-05-15T09:15:56.102Z,25.72
2018-05-15T09:18:23.825Z,25.84
2018-05-15T09:20:51.424Z,25.93
2018-05-15T09:23:19.000Z,26.05
2018-05-15T09:25:46.648Z,26.04
2018-05-15T09:28:14.240Z,26.19
2018-05-15T09:30:41.848Z,26.41
2018-05-15T09:33:09.460Z,26.70
2018-05-15T09:35:37.058Z,26.79
2018-05-15T09:38:04.696Z,26.82
2018-05-15T09:40:32.304Z,26.78
2018-05-15T09:43:00.171Z,26.78
2018-05-15T09:45:27.907Z,26.84
2018-05-15T09:47:55.479Z,26.95
2018-05-15T09:50:23.294Z,27.09
2018-05-15T09:52:50.971Z,27.18
2018-05-15T09:55:18.566Z,27.28
2018-05-15T09:57:46.474Z,27.37
2018-05-15T10:00:14.084Z,27.45
2018-05-15T10:02:41.673Z,27.67
2018-05-15T10:05:09.254Z,27.80
2018-05-15T10:07:36.879Z,27.87
2018-05-15T10:10:04.490Z,27.71
2018-05-15T10:12:32.388Z,27.57
2018-05-15T10:14:59.985Z,27.50
2018-05-15T10:17:27.660Z,27.54
2018-05-15T10:19:55.520Z,27.59
2018-05-15T10:22:23.103Z,27.77
2018-05-15T10:24:51.897Z,27.88
2018-05-15T10:27:19.452Z,28.10
2018-05-15T10:29:47.467Z,28.10
2018-05-15T10:32:15.144Z,28.28
2018-05-15T10:34:42.716Z,28.40
2018-05-15T10:37:10.843Z,27.91
2018-05-15T10:39:38.414Z,28.04
2018-05-15T10:42:05.987Z,28.35
2018-05-15T10:44:33.767Z,28.43
2018-05-15T10:47:01.407Z,28.67
2018-05-15T10:49:28.998Z,28.68
2018-05-15T10:51:56.675Z,28.71
2018-05-15T10:54:24.275Z,28.71
2018-05-15T10:56:52.125Z,28.71
2018-05-15T10:59:19.681Z,28.62
2018-05-15T11:01:47.504Z,28.81
2018-05-15T11:04:15.293Z,29.03
2018-05-15T11:06:42.865Z,29.43
2018-05-15T11:09:10.656Z,29.51
2018-05-15T11:11:38.250Z,29.54
2018-05-15T11:14:05.969Z,29.39
2018-05-15T11:16:33.589Z,29.23
2018-05-15T11:22:19.837Z,29.46
2018-05-15T11:24:53.490Z,29.59
2018-05-15T11:27:21.071Z,29.62
2018-05-15T11:29:48.638Z,29.70
2018-05-15T11:32:16.654Z,29.86
2018-05-15T11:34:44.212Z,30.15
2018-05-15T11:37:12.037Z,29.97
2018-05-15T11:39:39.624Z,29.83
2018-05-15T11:42:07.426Z,29.76
2018-05-15T11:44:35.041Z,29.73
2018-05-15T11:47:02.884Z,29.78
2018-05-15T11:49:31.512Z,29.58
2018-05-15T11:51:59.497Z,29.64
2018-05-15T11:54:26.692Z,29.69
2018-05-15T11:56:54.823Z,29.68
2018-05-15T11:59:22.376Z,29.58
2018-05-15T12:01:49.952Z,29.56
2018-05-15T12:04:17.895Z,29.75
2018-05-15T12:06:45.527Z,29.92
2018-05-15T12:09:13.195Z,30.14
2018-05-15T12:11:40.766Z,30.19
2018-05-15T12:14:08.711Z,30.27
2018-05-15T12:16:36.574Z,30.49
2018-05-15T12:19:04.172Z,30.69
2018-05-15T12:21:31.800Z,30.85
2018-05-15T12:23:59.513Z,30.97
2018-05-15T12:29:22.500Z,30.62
2018-05-15T12:31:50.164Z,30.56
2018-05-15T12:34:17.759Z,30.45
2018-05-15T12:36:45.412Z,30.59
2018-05-15T12:39:13.096Z,30.84
2018-05-15T12:41:40.941Z,30.83
2018-05-15T12:44:08.815Z,30.90
2018-05-15T12:46:36.495Z,30.74
2018-05-15T12:49:04.268Z,30.67
2018-05-15T12:51:31.883Z,30.58
2018-05-15T12:53:59.530Z,30.84
2018-05-15T12:56:27.090Z,31.10
2018-05-15T12:58:54.694Z,31.24
2018-05-15T13:01:22.355Z,31.33
2018-05-15T13:03:49.975Z,31.34
2018-05-15T13:06:17.564Z,31.48
2018-05-15T13:08:45.255Z,31.55
2018-05-15T13:11:12.819Z,31.65
2018-05-15T13:13:40.409Z,31.80
2018-05-15T13:16:08.292Z,31.84
2018-05-15T13:18:36.944Z,31.79
2018-05-15T13:21:04.504Z,31.79
2018-05-15T13:23:32.114Z,31.78
2018-05-15T13:25:59.828Z,31.69
2018-05-15T13:28:27.656Z,31.55
2018-05-15T13:30:55.266Z,31.75
2018-05-15T13:33:22.861Z,31.89
2018-05-15T13:35:50.459Z,32.06
2018-05-15T13:38:18.464Z,32.20
2018-05-15T13:40:46.058Z,32.32
2018-05-15T13:43:13.648Z,32.31
2018-05-15T13:45:41.330Z,32.11
2018-05-15T13:48:08.995Z,31.93
2018-05-15T13:50:36.657Z,31.90
2018-05-15T13:53:04.203Z,31.86
2018-05-15T13:55:32.309Z,31.64
2018-05-15T13:57:59.888Z,31.84
2018-05-15T14:00:27.458Z,32.14
2018-05-15T14:02:55.292Z,32.37
2018-05-15T14:05:22.901Z,32.59
2018-05-15T14:07:50.482Z,32.59
2018-05-15T14:10:18.159Z,32.26
2018-05-15T14:12:45.824Z,32.21
2018-05-15T14:15:13.446Z,32.39
2018-05-15T14:17:41.322Z,32.32
2018-05-15T14:20:08.916Z,32.42
2018-05-15T14:22:36.529Z,32.46
2018-05-15T14:25:04.175Z,32.34
2018-05-15T14:27:32.200Z,32.45
2018-05-15T14:29:59.845Z,32.68
2018-05-15T14:32:27.413Z,32.82
2018-05-15T14:34:55.148Z,32.49
2018-05-15T14:37:22.778Z,32.22
2018-05-15T14:39:50.856Z,32.22
2018-05-15T14:42:30.350Z,32.30
2018-05-15T14:44:57.974Z,32.23
2018-05-15T14:47:25.543Z,32.10
2018-05-15T14:49:53.136Z,32.07
2018-05-15T14:52:22.002Z,32.28
2018-05-15T14:54:49.699Z,32.51
2018-05-15T14:57:17.420Z,32.63
2018-05-15T14:59:45.032Z,32.75
2018-05-15T15:02:12.625Z,32.70
2018-05-15T15:04:40.225Z,32.58
2018-05-15T15:07:07.808Z,32.32
2018-05-15T15:09:35.421Z,31.99
2018-05-15T15:12:03.046Z,31.88
2018-05-15T15:14:30.656Z,31.72
2018-05-15T15:16:58.286Z,31.60
2018-05-15T15:19:26.196Z,31.61
2018-05-15T15:21:53.769Z,31.48
2018-05-15T15:24:21.374Z,31.19
2018-05-15T15:26:48.984Z,30.84
2018-05-15T15:29:16.963Z,30.62
2018-05-15T15:31:44.477Z,30.41
2018-05-15T15:34:12.088Z,30.30
2018-05-15T15:36:40.032Z,30.58
2018-05-15T15:39:07.841Z,30.76
2018-05-15T15:41:35.440Z,30.76
2018-05-15T15:44:03.133Z,30.59
2018-05-15T15:46:30.752Z,30.61
2018-05-15T15:48:58.921Z,30.48
2018-05-15T15:51:26.510Z,30.37
2018-05-15T15:53:54.085Z,30.33
2018-05-15T15:56:21.696Z,30.44
2018-05-15T15:58:49.324Z,30.28
2018-05-15T16:01:16.902Z,30.06
2018-05-15T16:03:45.604Z,30.00
2018-05-15T16:06:13.194Z,30.15
2018-05-15T16:08:40.997Z,30.01
2018-05-15T16:11:08.638Z,29.90
2018-05-15T16:13:36.258Z,29.87
2018-05-15T16:16:03.849Z,29.70
2018-05-15T16:18:31.427Z,29.62
2018-05-15T16:20:59.018Z,29.37
2018-05-15T16:23:26.594Z,29.16
2018-05-15T16:25:54.665Z,29.05
2018-05-15T16:28:22.570Z,28.67
2018-05-15T16:30:50.197Z,28.46
2018-05-15T16:33:17.782Z,28.21
2018-05-15T16:35:45.425Z,28.05
2018-05-15T16:38:13.139Z,27.84
2018-05-15T16:40:41.027Z,27.44
2018-05-15T16:43:08.629Z,27.33
2018-05-15T16:45:36.310Z,27.26
2018-05-15T16:48:03.972Z,27.19
2018-05-15T16:50:31.570Z,27.21
2018-05-15T16:52:59.131Z,27.18
2018-05-15T16:55:26.835Z,27.05
2018-05-15T16:57:54.393Z,27.02
2018-05-15T17:00:21.950Z,27.05
2018-05-15T17:02:49.893Z,27.02
2018-05-15T17:05:17.473Z,26.99
2018-05-15T17:07:45.134Z,26.96
2018-05-15T17:10:12.740Z,26.84
2018-05-15T17:12:40.568Z,26.75
2018-05-15T17:15:08.203Z,26.55
2018-05-15T17:17:36.035Z,26.47
2018-05-15T17:20:03.632Z,26.37
2018-05-15T17:22:31.198Z,26.42
2018-05-15T17:24:59.034Z,26.38
2018-05-15T17:27:26.709Z,26.26
2018-05-15T17:29:54.400Z,26.25
2018-05-15T17:32:21.980Z,26.19
2018-05-15T17:34:49.773Z,26.19
2018-05-15T17:37:17.353Z,26.26
2018-05-15T17:39:44.907Z,26.09
2018-05-15T17:42:12.499Z,25.96
2018-05-15T17:44:40.162Z,25.83
2018-05-15T17:47:07.739Z,25.78
2018-05-15T17:49:35.341Z,25.70
2018-05-15T17:52:03.131Z,25.59
2018-05-15T17:54:31.073Z,25.62
2018-05-15T17:56:58.887Z,25.66
2018-05-15T17:59:26.517Z,25.60
2018-05-15T18:01:54.057Z,25.52
2018-05-15T18:04:22.008Z,25.45
2018-05-15T18:06:49.838Z,25.44
2018-05-15T18:09:17.436Z,25.46
2018-05-15T18:11:45.072Z,25.47
2018-05-15T18:14:12.700Z,25.49
2018-05-15T18:16:40.282Z,25.35
2018-05-15T18:19:07.997Z,25.26
2018-05-15T18:21:35.560Z,25.07
2018-05-15T18:24:03.208Z,24.92
2018-05-15T18:26:30.800Z,24.84
2018-05-15T18:28:58.370Z,24.64
2018-05-15T18:31:25.963Z,24.50
2018-05-15T18:33:53.841Z,24.39
2018-05-15T18:36:21.720Z,24.35
2018-05-15T18:38:49.291Z,24.29
2018-05-15T18:41:16.886Z,24.11
2018-05-15T18:43:44.448Z,23.95
2018-05-15T18:46:12.043Z,23.80
2018-05-15T18:48:39.638Z,23.72
2018-05-15T18:51:07.273Z,23.66
2018-05-15T18:53:35.136Z,23.60
2018-05-15T18:56:02.798Z,23.49
2018-05-15T18:58:30.590Z,23.37
2018-05-15T19:00:58.535Z,23.32
2018-05-15T19:03:26.109Z,23.30
2018-05-15T19:05:53.701Z,23.31
2018-05-15T19:08:21.297Z,23.25
2018-05-15T19:10:48.870Z,23.10
2018-05-15T19:13:16.496Z,22.99
2018-05-15T19:15:44.115Z,22.90
2018-05-15T19:18:11.670Z,22.77
2018-05-15T19:20:39.248Z,22.75
2018-05-15T19:23:07.360Z,22.66
2018-05-15T19:25:35.181Z,22.57
2018-05-15T19:28:02.752Z,22.38
2018-05-15T19:30:30.347Z,22.32
2018-05-15T19:33:04.334Z,22.21
2018-05-15T19:35:37.747Z,22.14
2018-05-15T19:38:05.388Z,22.07
2018-05-15T19:40:32.971Z,21.97
2018-05-15T19:43:00.529Z,21.92
2018-05-15T19:45:28.120Z,21.88
2018-05-15T19:47:55.708Z,21.79
2018-05-15T19:50:23.280Z,21.67
2018-05-15T19:52:51.104Z,21.61
2018-05-15T19:55:18.685Z,21.51
2018-05-15T19:57:46.489Z,21.43
2018-05-15T20:00:14.103Z,21.33
2018-05-15T20:02:41.681Z,21.24
2018-05-15T20:05:09.241Z,21.14
2018-05-15T20:07:37.140Z,21.11
2018-05-15T20:10:04.759Z,21.02
2018-05-15T20:12:32.362Z,20.94
2018-05-15T20:14:59.928Z,20.91
2018-05-15T20:17:27.533Z,20.83
2018-05-15T20:19:55.103Z,20.77
2018-05-15T20:22:22.715Z,20.69
2018-05-15T20:24:50.373Z,20.67
2018-05-15T20:27:17.934Z,20.63
2018-05-15T20:29:45.486Z,20.59
2018-05-15T20:32:13.078Z,20.56
2018-05-15T20:34:40.783Z,20.57
2018-05-15T20:37:08.437Z,20.50
2018-05-15T20:39:36.007Z,20.44
2018-05-15T20:42:03.673Z,20.41
2018-05-15T20:44:31.382Z,20.36
2018-05-15T20:46:58.960Z,20.28
2018-05-15T20:49:26.531Z,20.20
2018-05-15T20:51:54.379Z,20.11
2018-05-15T20:54:21.939Z,20.04
2018-05-15T20:56:49.518Z,19.93
2018-05-15T20:59:17.529Z,19.85
2018-05-15T21:01:45.092Z,19.86
2018-05-15T21:04:12.668Z,19.80
2018-05-15T21:06:40.598Z,19.77
2018-05-15T21:09:08.203Z,19.77
2018-05-15T21:11:36.068Z,19.71
2018-05-15T21:14:03.700Z,19.69
2018-05-15T21:16:31.423Z,19.66
2018-05-15T21:18:59.029Z,19.62
2018-05-15T21:21:26.634Z,19.55
2018-05-15T21:23:54.316Z,19.51
2018-05-15T21:26:21.885Z,19.49
2018-05-15T21:28:49.616Z,19.51
2018-05-15T21:31:17.253Z,19.46
2018-05-15T21:33:44.872Z,19.42
2018-05-15T21:36:12.530Z,19.41
2018-05-15T21:38:40.164Z,19.36
2018-05-15T21:41:07.764Z,19.30
2018-05-15T21:43:35.603Z,19.27
2018-05-15T21:46:03.250Z,19.23
2018-05-15T21:48:30.827Z,19.19
2018-05-15T21:50:58.432Z,19.17
2018-05-15T21:53:26.175Z,19.16
2018-05-15T21:55:53.947Z,19.11
2018-05-15T21:58:21.816Z,19.05
2018-05-15T22:00:49.817Z,19.05
2018-05-15T22:03:17.539Z,19.04
2018-05-15T22:05:48.144Z,18.98
2018-05-15T22:08:15.746Z,18.95
2018-05-15T22:10:43.542Z,18.91
2018-05-15T22:13:22.963Z,18.84
2018-05-15T22:16:02.838Z,18.76
2018-05-15T22:18:42.248Z,18.71
2018-05-15T22:21:21.583Z,18.66
2018-05-15T22:23:48.895Z,18.59
2018-05-15T22:26:16.558Z,18.56
2018-05-15T22:28:44.411Z,18.52
2018-05-15T22:31:12.063Z,18.51
2018-05-15T22:33:39.848Z,18.49
2018-05-15T22:36:07.427Z,18.44
2018-05-15T22:38:35.569Z,18.45
2018-05-15T22:41:03.236Z,18.39
2018-05-15T22:43:30.826Z,18.38
2018-05-15T22:45:58.535Z,18.38
2018-05-15T22:48:26.175Z,18.38
2018-05-15T22:50:53.863Z,18.39
2018-05-15T22:53:21.569Z,18.39
2018-05-15T22:55:49.187Z,18.38
2018-05-15T22:58:17.157Z,18.34
2018-05-15T23:00:44.844Z,18.31
2018-05-15T23:03:12.476Z,18.28
2018-05-15T23:05:40.606Z,18.29
2018-05-15T23:08:08.221Z,18.35
2018-05-15T23:10:35.897Z,18.29
2018-05-15T23:13:03.793Z,18.25
2018-05-15T23:15:31.467Z,18.22
2018-05-15T23:17:59.077Z,18.22
2018-05-15T23:20:27.092Z,18.28
2018-05-15T23:22:54.651Z,18.23
2018-05-15T23:25:22.560Z,18.20
2018-05-15T23:27:50.217Z,18.20
2018-05-15T23:30:17.867Z,18.21
2018-05-15T23:32:45.432Z,18.25
2018-05-15T23:35:13.289Z,18.26
2018-05-15T23:37:41.315Z,18.27
2018-05-15T23:40:09.028Z,18.24
2018-05-15T23:42:36.671Z,18.22
2018-05-15T23:45:04.314Z,18.21
2018-05-15T23:47:32.265Z,18.22
2018-05-15T23:50:00.328Z,18.24
2018-05-15T23:52:27.919Z,18.23
2018-05-15T23:54:55.490Z,18.20
2018-05-15T23:57:23.119Z,18.16
2018-05-15T23:59:50.703Z,18.12
